createdAt,value
2018-02-23T00:00:46.696Z,64.50
2018-02-23T00:03:15.013Z,64.70
2018-02-23T00:05:43.304Z,65.00
2018-02-23T00:08:11.627Z,65.10
2018-02-23T00:10:39.924Z,65.40
2018-02-23T00:13:08.240Z,65.70
2018-02-23T00:15:36.536Z,65.40
2018-02-23T00:18:04.852Z,65.40
2018-02-23T00:20:33.152Z,65.50
2018-02-23T00:23:01.473Z,65.40
2018-02-23T00:25:29.767Z,65.50
2018-02-23T00:27:58.084Z,65.50
2018-02-23T00:30:26.376Z,66.00
2018-02-23T00:32:54.688Z,66.60
2018-02-23T00:35:22.982Z,66.60
2018-02-23T00:37:51.296Z,66.60
2018-02-23T00:40:19.604Z,66.80
2018-02-23T00:42:47.920Z,66.90
2018-02-23T00:45:15.444Z,67.00
2018-02-23T00:47:43.773Z,67.00
2018-02-23T00:50:12.073Z,66.90
2018-02-23T00:52:40.409Z,66.70
2018-02-23T00:55:08.712Z,66.80
2018-02-23T00:57:37.033Z,66.80
2018-02-23T01:00:05.329Z,66.90
2018-02-23T01:02:33.648Z,67.10
2018-02-23T01:05:01.983Z,67.70
2018-02-23T01:07:30.280Z,67.90
2018-02-23T01:09:58.571Z,68.10
2018-02-23T01:12:26.120Z,67.90
2018-02-23T01:14:53.648Z,68.00
2018-02-23T01:17:21.986Z,68.00
2018-02-23T01:19:50.289Z,68.20
2018-02-23T01:22:18.604Z,68.60
2018-02-23T01:24:46.906Z,68.80
2018-02-23T01:27:15.228Z,68.80
2018-02-23T01:29:43.532Z,69.00
2018-02-23T01:32:11.852Z,69.20
2018-02-23T01:34:40.151Z,69.50
2018-02-23T01:37:08.452Z,69.80
2018-02-23T01:39:36.779Z,70.10
2018-02-23T01:42:05.072Z,70.30
2018-02-23T01:44:33.397Z,70.30
2018-02-23T01:47:01.692Z,70.40
2018-02-23T01:49:30.013Z,70.30
2018-02-23T01:51:58.311Z,70.10
2018-02-23T01:54:26.624Z,70.10
2018-02-23T01:56:54.912Z,70.10
2018-02-23T01:59:23.274Z,70.10
2018-02-23T02:01:51.532Z,70.20
2018-02-23T02:04:19.856Z,70.20
2018-02-23T02:06:47.388Z,70.20
2018-02-23T02:09:15.708Z,70.30
2018-02-23T02:11:43.237Z,70.30
2018-02-23T02:14:11.557Z,70.50
2018-02-23T02:16:39.852Z,70.60
2018-02-23T02:19:08.168Z,71.00
2018-02-23T02:21:36.468Z,71.20
2018-02-23T02:24:04.788Z,71.30
2018-02-23T02:26:33.092Z,71.20
2018-02-23T02:29:01.409Z,71.30
2018-02-23T02:31:29.707Z,71.30
2018-02-23T02:33:58.018Z,71.50
2018-02-23T02:36:26.322Z,71.60
2018-02-23T02:38:54.640Z,71.80
2018-02-23T02:41:22.176Z,71.80
2018-02-23T02:43:50.496Z,71.90
2018-02-23T02:46:18.792Z,72.00
2018-02-23T02:48:47.108Z,72.10
2018-02-23T02:51:15.401Z,72.30
2018-02-23T02:53:43.744Z,72.60
2018-02-23T02:56:12.038Z,72.60
2018-02-23T02:58:40.354Z,72.70
2018-02-23T03:01:08.668Z,72.70
2018-02-23T03:03:36.964Z,72.80
2018-02-23T03:06:05.285Z,72.80
2018-02-23T03:08:33.781Z,72.80
2018-02-23T03:11:02.093Z,72.70
2018-02-23T03:13:30.388Z,72.50
2018-02-23T03:15:58.700Z,72.70
2018-02-23T03:18:27.000Z,72.80
2018-02-23T03:20:55.320Z,72.90
2018-02-23T03:23:23.611Z,72.90
2018-02-23T03:25:51.904Z,72.90
2018-02-23T03:28:20.221Z,72.90
2018-02-23T03:30:48.526Z,73.10
2018-02-23T03:33:16.844Z,73.00
2018-02-23T03:35:45.145Z,73.10
2018-02-23T03:38:13.459Z,73.30
2018-02-23T03:40:41.757Z,73.30
2018-02-23T03:43:10.078Z,73.30
2018-02-23T03:45:38.380Z,73.30
2018-02-23T03:48:06.700Z,73.40
2018-02-23T03:50:34.993Z,73.50
2018-02-23T03:53:02.519Z,73.50
2018-02-23T03:55:30.832Z,74.70
2018-02-23T03:57:59.128Z,74.10
2018-02-23T04:00:27.445Z,73.90
2018-02-23T04:02:55.745Z,74.00
2018-02-23T04:05:23.301Z,74.10
2018-02-23T04:07:51.595Z,74.30
2018-02-23T04:10:19.908Z,74.30
2018-02-23T04:12:48.200Z,74.40
2018-02-23T04:15:16.516Z,74.50
2018-02-23T04:17:44.810Z,74.60
2018-02-23T04:20:13.124Z,74.80
2018-02-23T04:22:41.415Z,74.80
2018-02-23T04:25:09.728Z,75.10
2018-02-23T04:27:38.017Z,75.10
2018-02-23T04:30:06.341Z,75.60
2018-02-23T04:32:34.636Z,74.90
2018-02-23T04:35:02.953Z,75.00
2018-02-23T04:37:31.243Z,75.00
2018-02-23T04:39:59.560Z,74.90
2018-02-23T04:42:27.855Z,75.10
2018-02-23T04:44:56.176Z,75.00
2018-02-23T04:47:24.480Z,74.90
2018-02-23T04:49:52.801Z,74.90
2018-02-23T04:52:21.096Z,75.10
2018-02-23T04:54:49.427Z,75.70
2018-02-23T04:57:17.744Z,75.30
2018-02-23T04:59:46.036Z,75.20
2018-02-23T05:02:14.352Z,75.00
2018-02-23T05:04:42.661Z,74.90
2018-02-23T05:07:10.980Z,75.00
2018-02-23T05:09:39.276Z,75.30
2018-02-23T05:12:07.585Z,75.50
2018-02-23T05:14:35.876Z,75.80
2018-02-23T05:17:04.187Z,75.90
2018-02-23T05:19:32.488Z,76.00
2018-02-23T05:22:00.800Z,76.00
2018-02-23T05:24:29.109Z,75.90
2018-02-23T05:26:57.424Z,76.10
2018-02-23T05:29:25.724Z,76.10
2018-02-23T05:31:54.047Z,76.30
2018-02-23T05:34:22.349Z,76.30
2018-02-23T05:36:50.663Z,76.40
2018-02-23T05:39:18.955Z,76.50
2018-02-23T05:41:47.279Z,76.60
2018-02-23T05:44:15.576Z,76.70
2018-02-23T05:46:43.888Z,76.70
2018-02-23T05:49:12.192Z,76.80
2018-02-23T05:51:40.510Z,76.80
2018-02-23T05:54:08.804Z,76.70
2018-02-23T05:56:37.124Z,76.60
2018-02-23T05:59:05.412Z,76.40
2018-02-23T06:01:33.744Z,76.50
2018-02-23T06:04:02.040Z,76.70
2018-02-23T06:06:30.400Z,76.70
2018-02-23T06:08:58.714Z,76.70
2018-02-23T06:11:27.037Z,76.70
2018-02-23T06:13:55.341Z,77.30
2018-02-23T06:16:27.444Z,76.80
2018-02-23T06:18:58.366Z,77.00
2018-02-23T06:21:26.707Z,77.00
2018-02-23T06:23:55.004Z,77.10
2018-02-23T06:26:23.321Z,77.10
2018-02-23T06:28:51.612Z,77.10
2018-02-23T06:31:19.932Z,76.80
2018-02-23T06:33:48.228Z,76.90
2018-02-23T06:36:16.545Z,77.00
2018-02-23T06:38:44.872Z,77.00
2018-02-23T06:41:13.165Z,76.80
2018-02-23T06:43:41.492Z,76.60
2018-02-23T06:46:09.019Z,77.50
2018-02-23T06:48:37.335Z,76.70
2018-02-23T06:51:05.627Z,76.60
2018-02-23T06:53:33.992Z,76.80
2018-02-23T06:56:02.271Z,76.90
2018-02-23T06:58:30.608Z,76.40
2018-02-23T07:00:58.904Z,76.20
2018-02-23T07:03:27.220Z,76.20
2018-02-23T07:05:55.519Z,76.20
2018-02-23T07:08:23.833Z,76.30
2018-02-23T07:10:52.165Z,76.10
2018-02-23T07:13:20.467Z,76.00
2018-02-23T07:15:48.764Z,75.80
2018-02-23T07:18:17.085Z,75.70
2018-02-23T07:20:45.390Z,75.70
2018-02-23T07:23:13.707Z,75.80
2018-02-23T07:25:44.807Z,75.70
2018-02-23T07:28:13.137Z,75.40
2018-02-23T07:30:41.431Z,75.00
2018-02-23T07:33:09.748Z,75.00
2018-02-23T07:35:38.051Z,74.80
2018-02-23T07:38:06.371Z,74.60
2018-02-23T07:40:34.686Z,74.00
2018-02-23T07:43:03.017Z,74.10
2018-02-23T07:45:31.325Z,73.80
2018-02-23T07:47:59.644Z,73.50
2018-02-23T07:50:27.939Z,73.30
2018-02-23T07:52:56.256Z,73.00
2018-02-23T07:55:24.555Z,72.60
2018-02-23T07:57:52.876Z,72.30
2018-02-23T08:00:21.167Z,72.20
2018-02-23T08:02:49.488Z,71.80
2018-02-23T08:05:17.783Z,71.40
2018-02-23T08:07:46.109Z,70.90
2018-02-23T08:10:14.412Z,69.60
2018-02-23T08:12:42.719Z,65.00
2018-02-23T08:15:11.023Z,62.50
2018-02-23T08:17:39.352Z,59.60
2018-02-23T08:20:07.649Z,59.00
2018-02-23T08:22:35.948Z,57.70
2018-02-23T08:25:04.272Z,56.40
2018-02-23T08:27:32.568Z,55.80
2018-02-23T08:30:00.897Z,55.10
2018-02-23T08:32:29.192Z,53.60
2018-02-23T08:34:57.508Z,52.90
2018-02-23T08:37:25.805Z,52.20
2018-02-23T08:39:54.115Z,51.50
2018-02-23T08:42:22.404Z,51.40
2018-02-23T08:44:50.726Z,50.00
2018-02-23T08:47:19.028Z,50.30
2018-02-23T08:49:47.348Z,49.50
2018-02-23T08:52:15.644Z,49.00
2018-02-23T08:54:43.189Z,49.00
2018-02-23T08:57:11.476Z,48.50
2018-02-23T08:59:39.783Z,48.40
2018-02-23T09:02:08.082Z,47.20
2018-02-23T09:04:36.399Z,46.50
2018-02-23T09:07:04.693Z,46.80
2018-02-23T09:09:33.012Z,46.80
2018-02-23T09:12:01.311Z,46.60
2018-02-23T09:14:29.620Z,46.10
2018-02-23T09:16:57.941Z,45.60
2018-02-23T09:19:26.257Z,45.00
2018-02-23T09:21:54.550Z,44.40
2018-02-23T09:24:22.100Z,44.40
2018-02-23T09:26:50.392Z,42.10
2018-02-23T09:29:18.709Z,42.10
2018-02-23T09:31:47.005Z,41.70
2018-02-23T09:34:37.688Z,42.00
2018-02-23T09:37:05.978Z,41.40
2018-02-23T09:39:34.293Z,42.00
2018-02-23T09:42:02.625Z,43.40
2018-02-23T09:44:30.940Z,42.30
2018-02-23T09:46:59.236Z,41.20
2018-02-23T09:49:27.550Z,40.50
2018-02-23T09:51:55.084Z,40.50
2018-02-23T09:54:23.396Z,40.60
2018-02-23T09:56:51.685Z,40.30
2018-02-23T09:59:19.996Z,39.00
2018-02-23T10:01:48.296Z,39.60
2018-02-23T10:04:16.614Z,39.80
2018-02-23T10:06:44.896Z,38.80
2018-02-23T10:09:13.199Z,39.20
2018-02-23T10:11:41.509Z,38.70
2018-02-23T10:14:09.805Z,37.70
2018-02-23T10:16:38.121Z,37.20
2018-02-23T10:19:06.409Z,38.20
2018-02-23T10:21:34.719Z,37.80
2018-02-23T10:24:03.009Z,37.10
2018-02-23T10:26:31.341Z,36.70
2018-02-23T10:28:59.624Z,38.10
2018-02-23T10:31:27.933Z,37.80
2018-02-23T10:33:55.464Z,37.70
2018-02-23T10:36:26.413Z,36.80
2018-02-23T10:38:54.704Z,36.50
2018-02-23T10:41:23.020Z,36.40
2018-02-23T10:43:51.316Z,36.20
2018-02-23T10:46:19.632Z,35.30
2018-02-23T10:48:47.929Z,34.10
2018-02-23T10:51:16.256Z,35.40
2018-02-23T10:53:44.543Z,35.50
2018-02-23T10:56:12.847Z,35.20
2018-02-23T10:58:41.140Z,35.80
2018-02-23T11:01:09.473Z,34.50
2018-02-23T11:03:37.764Z,35.30
2018-02-23T11:06:06.091Z,35.30
2018-02-23T11:08:34.415Z,34.50
2018-02-23T11:11:02.731Z,33.80
2018-02-23T11:13:31.024Z,33.70
2018-02-23T11:15:59.336Z,34.00
2018-02-23T11:18:27.627Z,34.20
2018-02-23T11:20:55.934Z,34.30
2018-02-23T11:23:24.224Z,33.30
2018-02-23T11:25:52.548Z,33.10
2018-02-23T11:28:20.844Z,33.40
2018-02-23T11:30:49.160Z,33.50
2018-02-23T11:33:17.468Z,32.30
2018-02-23T11:35:45.787Z,32.60
2018-02-23T11:38:14.076Z,33.00
2018-02-23T11:40:42.381Z,33.00
2018-02-23T11:43:10.667Z,33.20
2018-02-23T11:45:38.203Z,33.20
2018-02-23T11:48:06.484Z,32.90
2018-02-23T11:50:34.798Z,32.20
2018-02-23T11:53:02.323Z,32.20
2018-02-23T11:55:30.642Z,31.90
2018-02-23T11:58:04.652Z,32.80
2018-02-23T12:00:32.981Z,32.10
2018-02-23T12:03:01.277Z,32.80
2018-02-23T12:05:29.575Z,32.30
2018-02-23T12:07:57.883Z,31.40
2018-02-23T12:10:26.176Z,31.70
2018-02-23T12:12:54.492Z,31.10
2018-02-23T12:15:22.780Z,30.30
2018-02-23T12:17:51.091Z,30.00
2018-02-23T12:20:19.383Z,30.40
2018-02-23T12:22:47.696Z,30.40
2018-02-23T12:25:16.003Z,30.80
2018-02-23T12:27:43.580Z,30.70
2018-02-23T12:30:11.884Z,31.00
2018-02-23T12:32:40.205Z,30.70
2018-02-23T12:35:07.778Z,30.70
2018-02-23T12:37:36.084Z,30.60
2018-02-23T12:40:04.384Z,29.90
2018-02-23T12:42:32.717Z,29.60
2018-02-23T12:45:01.657Z,29.60
2018-02-23T12:47:30.004Z,30.10
2018-02-23T12:49:58.316Z,29.20
2018-02-23T12:52:26.631Z,29.90
2018-02-23T12:54:54.921Z,30.30
2018-02-23T12:57:23.241Z,30.70
2018-02-23T12:59:51.535Z,30.60
2018-02-23T13:02:19.852Z,30.60
2018-02-23T13:04:48.164Z,30.50
2018-02-23T13:07:16.494Z,29.50
2018-02-23T13:09:44.791Z,30.20
2018-02-23T13:12:13.280Z,30.60
2018-02-23T13:14:47.175Z,30.20
2018-02-23T13:17:15.500Z,30.10
2018-02-23T13:19:43.787Z,29.60
2018-02-23T13:22:12.114Z,29.50
2018-02-23T13:24:40.423Z,29.20
2018-02-23T13:27:14.421Z,29.40
2018-02-23T13:29:42.725Z,29.10
2018-02-23T13:32:11.037Z,29.20
2018-02-23T13:34:39.341Z,29.80
2018-02-23T13:37:07.670Z,30.10
2018-02-23T13:39:35.965Z,30.00
2018-02-23T13:42:04.283Z,29.50
2018-02-23T13:44:32.583Z,29.80
2018-02-23T13:47:00.908Z,29.80
2018-02-23T13:49:29.209Z,29.90
2018-02-23T13:51:57.527Z,29.40
2018-02-23T13:54:25.063Z,29.40
2018-02-23T13:56:53.353Z,29.50
2018-02-23T13:59:21.685Z,29.60
2018-02-23T14:01:49.977Z,29.50
2018-02-23T14:04:18.287Z,29.50
2018-02-23T14:06:48.399Z,29.50
2018-02-23T14:09:16.711Z,29.40
2018-02-23T14:11:45.000Z,29.10
2018-02-23T14:14:13.309Z,29.80
2018-02-23T14:16:41.607Z,30.10
2018-02-23T14:19:09.917Z,30.00
2018-02-23T14:21:38.212Z,29.40
2018-02-23T14:24:06.528Z,29.50
2018-02-23T14:26:34.833Z,29.50
2018-02-23T14:29:03.152Z,29.80
2018-02-23T14:31:31.464Z,29.20
2018-02-23T14:33:59.785Z,29.40
2018-02-23T14:36:28.070Z,30.00
2018-02-23T14:38:56.391Z,30.70
2018-02-23T14:41:24.685Z,31.00
2018-02-23T14:43:52.996Z,31.20
2018-02-23T14:46:21.288Z,30.90
2018-02-23T14:49:01.466Z,30.80
2018-02-23T14:51:29.713Z,30.30
2018-02-23T14:53:58.044Z,29.70
2018-02-23T14:56:26.340Z,30.00
2018-02-23T14:58:54.657Z,30.50
2018-02-23T15:01:22.954Z,30.50
2018-02-23T15:03:51.272Z,31.10
2018-02-23T15:06:19.567Z,31.00
2018-02-23T15:08:47.894Z,31.20
2018-02-23T15:11:16.197Z,30.70
2018-02-23T15:13:44.508Z,30.10
2018-02-23T15:16:12.807Z,30.30
2018-02-23T15:18:41.127Z,30.40
2018-02-23T15:21:09.429Z,30.20
2018-02-23T15:23:37.757Z,30.50
2018-02-23T15:26:06.046Z,30.70
2018-02-23T15:28:34.369Z,30.90
2018-02-23T15:31:14.393Z,30.30
2018-02-23T15:33:42.712Z,29.00
2018-02-23T15:36:11.003Z,29.30
2018-02-23T15:38:39.312Z,29.50
2018-02-23T15:41:07.611Z,29.30
2018-02-23T15:43:35.916Z,29.70
2018-02-23T15:46:04.216Z,30.10
2018-02-23T15:48:38.145Z,31.00
2018-02-23T15:51:22.121Z,31.00
2018-02-23T15:53:50.431Z,31.10
2018-02-23T15:56:18.723Z,30.90
2018-02-23T15:58:47.040Z,31.30
2018-02-23T16:01:15.335Z,31.10
2018-02-23T16:03:43.620Z,31.20
2018-02-23T16:06:11.936Z,31.20
2018-02-23T16:08:40.236Z,31.20
2018-02-23T16:11:08.544Z,31.70
2018-02-23T16:13:36.839Z,31.60
2018-02-23T16:16:05.149Z,32.00
2018-02-23T16:18:33.441Z,32.10
2018-02-23T16:21:01.758Z,32.50
2018-02-23T16:23:30.051Z,32.70
2018-02-23T16:25:58.364Z,32.90
2018-02-23T16:28:26.653Z,32.40
2018-02-23T16:30:54.968Z,32.60
2018-02-23T16:33:22.488Z,32.60
2018-02-23T16:35:50.796Z,33.10
2018-02-23T16:38:19.088Z,33.60
2018-02-23T16:40:47.401Z,32.70
2018-02-23T16:43:15.692Z,32.60
2018-02-23T16:45:44.008Z,32.90
2018-02-23T16:48:14.283Z,33.00
2018-02-23T16:50:42.604Z,33.50
2018-02-23T16:53:10.888Z,34.20
2018-02-23T16:55:39.203Z,34.30
2018-02-23T16:58:07.500Z,34.10
2018-02-23T17:00:35.814Z,34.40
2018-02-23T17:03:04.108Z,34.10
2018-02-23T17:05:32.428Z,34.30
2018-02-23T17:08:00.754Z,33.80
2018-02-23T17:10:29.072Z,34.00
2018-02-23T17:12:57.364Z,33.50
2018-02-23T17:15:25.681Z,33.90
2018-02-23T17:17:53.972Z,33.80
2018-02-23T17:20:22.275Z,32.80
2018-02-23T17:22:50.568Z,33.30
2018-02-23T17:25:18.891Z,33.10
2018-02-23T17:27:47.196Z,33.00
2018-02-23T17:30:15.519Z,33.40
2018-02-23T17:32:43.812Z,33.40
2018-02-23T17:35:11.360Z,33.30
2018-02-23T17:37:39.651Z,33.60
2018-02-23T17:40:07.963Z,33.40
2018-02-23T17:42:36.338Z,34.00
2018-02-23T17:45:04.931Z,34.30
2018-02-23T17:47:33.287Z,34.90
2018-02-23T17:50:01.602Z,34.50
2018-02-23T17:52:29.912Z,34.00
2018-02-23T17:54:58.256Z,34.50
2018-02-23T17:57:26.831Z,35.10
2018-02-23T17:59:55.130Z,35.20
2018-02-23T18:02:23.489Z,35.80
2018-02-23T18:04:51.972Z,36.70
2018-02-23T18:07:20.661Z,37.40
2018-02-23T18:09:48.960Z,37.70
2018-02-23T18:12:17.283Z,36.60
2018-02-23T18:14:45.598Z,36.70
2018-02-23T18:17:13.924Z,36.70
2018-02-23T18:19:42.218Z,37.50
2018-02-23T18:22:09.768Z,36.90
2018-02-23T18:24:37.346Z,37.40
2018-02-23T18:27:05.708Z,38.20
2018-02-23T18:29:34.048Z,38.60
2018-02-23T18:32:02.376Z,38.60
2018-02-23T18:34:30.680Z,38.60
2018-02-23T18:36:59.024Z,38.60
2018-02-23T18:39:27.335Z,37.30
2018-02-23T18:41:55.702Z,37.40
2018-02-23T18:44:24.147Z,37.40
2018-02-23T18:46:52.680Z,37.10
2018-02-23T18:49:20.977Z,36.70
2018-02-23T18:51:49.283Z,37.10
2018-02-23T18:54:17.625Z,37.20
2018-02-23T18:56:45.968Z,37.60
2018-02-23T18:59:14.271Z,38.00
2018-02-23T19:01:42.600Z,37.80
2018-02-23T19:04:10.897Z,38.00
2018-02-23T19:06:39.212Z,37.90
2018-02-23T19:09:08.239Z,38.00
2018-02-23T19:11:36.571Z,37.90
2018-02-23T19:14:04.872Z,37.90
2018-02-23T19:16:33.197Z,38.20
2018-02-23T19:19:01.501Z,38.80
2018-02-23T19:21:29.821Z,38.80
2018-02-23T19:23:58.116Z,39.30
2018-02-23T19:26:26.433Z,39.50
2018-02-23T19:28:54.736Z,39.40
2018-02-23T19:31:23.063Z,39.60
2018-02-23T19:33:51.357Z,39.60
2018-02-23T19:36:19.722Z,39.40
2018-02-23T19:38:48.033Z,39.20
2018-02-23T19:41:16.320Z,39.00
2018-02-23T19:43:44.638Z,39.10
2018-02-23T19:46:12.934Z,39.00
2018-02-23T19:48:41.248Z,39.20
2018-02-23T19:51:09.549Z,38.60
2018-02-23T19:53:37.902Z,37.80
2018-02-23T19:56:06.249Z,37.60
2018-02-23T19:58:34.568Z,37.50
2018-02-23T20:01:02.884Z,37.90
2018-02-23T20:03:31.251Z,38.00
2018-02-23T20:05:58.812Z,38.00
2018-02-23T20:08:27.137Z,37.50
2018-02-23T20:10:55.436Z,37.20
2018-02-23T20:13:23.785Z,36.80
2018-02-23T20:15:52.084Z,36.60
2018-02-23T20:18:20.396Z,36.50
2018-02-23T20:20:48.689Z,36.50
2018-02-23T20:23:17.008Z,36.20
2018-02-23T20:25:45.312Z,36.40
2018-02-23T20:28:13.676Z,36.40
2018-02-23T20:30:41.969Z,36.80
2018-02-23T20:33:10.291Z,37.60
2018-02-23T20:35:38.593Z,38.20
2018-02-23T20:38:06.910Z,38.60
2018-02-23T20:40:35.209Z,38.80
2018-02-23T20:43:03.531Z,39.40
2018-02-23T20:45:31.902Z,39.80
2018-02-23T20:48:00.168Z,40.40
2018-02-23T20:50:28.528Z,40.80
2018-02-23T20:52:56.875Z,41.00
2018-02-23T20:55:25.175Z,41.00
2018-02-23T20:57:53.492Z,41.20
2018-02-23T21:00:21.784Z,41.60
2018-02-23T21:02:50.103Z,41.80
2018-02-23T21:05:18.400Z,42.00
2018-02-23T21:07:46.716Z,42.50
2018-02-23T21:10:15.031Z,42.80
2018-02-23T21:12:43.356Z,43.10
2018-02-23T21:15:11.648Z,43.60
2018-02-23T21:17:40.004Z,44.50
2018-02-23T21:20:08.297Z,44.40
2018-02-23T21:22:36.596Z,44.70
2018-02-23T21:25:04.913Z,44.90
2018-02-23T21:27:33.207Z,44.90
2018-02-23T21:30:01.524Z,44.90
2018-02-23T21:32:29.832Z,45.20
2018-02-23T21:34:58.149Z,45.60
2018-02-23T21:37:26.445Z,46.00
2018-02-23T21:39:54.767Z,46.30
2018-02-23T21:42:23.059Z,47.30
2018-02-23T21:44:51.376Z,47.10
2018-02-23T21:47:19.668Z,47.30
2018-02-23T21:49:47.992Z,47.50
2018-02-23T21:52:16.295Z,47.70
2018-02-23T21:54:44.615Z,47.70
2018-02-23T21:57:12.913Z,48.20
2018-02-23T21:59:41.228Z,47.50
2018-02-23T22:02:09.520Z,47.60
2018-02-23T22:04:37.071Z,47.70
2018-02-23T22:07:05.368Z,48.00
2018-02-23T22:09:33.688Z,48.10
2018-02-23T22:12:01.985Z,48.20
2018-02-23T22:14:30.299Z,48.10
2018-02-23T22:16:58.587Z,48.30
2018-02-23T22:19:26.908Z,48.50
2018-02-23T22:21:55.205Z,48.90
2018-02-23T22:24:23.524Z,49.00
2018-02-23T22:26:51.829Z,49.30
2018-02-23T22:29:20.149Z,49.50
2018-02-23T22:31:48.459Z,49.70
2018-02-23T22:34:16.779Z,50.00
2018-02-23T22:36:45.083Z,50.30
2018-02-23T22:39:13.396Z,50.20
2018-02-23T22:41:41.694Z,50.60
2018-02-23T22:44:09.257Z,51.10
2018-02-23T22:46:37.552Z,50.80
2018-02-23T22:49:05.876Z,50.80
2018-02-23T22:51:34.185Z,50.90
2018-02-23T22:54:02.517Z,51.10
2018-02-23T22:56:30.811Z,51.30
2018-02-23T22:58:59.127Z,51.60
2018-02-23T23:01:27.425Z,51.90
2018-02-23T23:03:55.754Z,52.00
2018-02-23T23:06:24.075Z,52.10
2018-02-23T23:08:52.372Z,52.40
2018-02-23T23:11:19.921Z,52.40
2018-02-23T23:13:48.256Z,52.60
2018-02-23T23:16:16.579Z,52.80
2018-02-23T23:18:44.872Z,53.20
2018-02-23T23:21:13.191Z,54.10
2018-02-23T23:23:41.491Z,53.80
2018-02-23T23:26:09.828Z,54.10
2018-02-23T23:28:38.131Z,54.20
2018-02-23T23:31:06.448Z,54.10
2018-02-23T23:33:34.740Z,54.50
2018-02-23T23:36:03.065Z,55.40
2018-02-23T23:38:31.372Z,55.30
2018-02-23T23:40:59.698Z,55.40
2018-02-23T23:43:27.995Z,55.60
2018-02-23T23:45:56.308Z,55.80
2018-02-23T23:48:24.608Z,56.00
2018-02-23T23:50:52.924Z,56.20
2018-02-23T23:53:21.221Z,56.30
2018-02-23T23:55:49.548Z,56.30
2018-02-23T23:58:17.840Z,56.30
